sensor_id;sensor_type;location;lat;lon;timestamp;P1;durP1;ratioP1;P2;durP2;ratioP2
19575;SDS011;41589;51.196;7.074;2022-09-03T00:01:34;0.80;;;0.60;;
19575;SDS011;41589;51.196;7.074;2022-09-03T00:06:42;0.53;;;0.53;;
19575;SDS011;41589;51.196;7.074;2022-09-03T00:11:56;0.50;;;0.50;;
19575;SDS011;41589;51.196;7.074;2022-09-03T00:17:02;0.60;;;0.60;;
19575;SDS011;41589;51.196;7.074;2022-09-03T00:22:09;1.60;;;0.60;;
19575;SDS011;41589;51.196;7.074;2022-09-03T00:27:15;0.60;;;0.60;;
19575;SDS011;41589;51.196;7.074;2022-09-03T00:32:22;1.37;;;0.60;;
19575;SDS011;41589;51.196;7.074;2022-09-03T00:37:28;0.60;;;0.50;;
19575;SDS011;41589;51.196;7.074;2022-09-03T00:42:36;0.60;;;0.60;;
19575;SDS011;41589;51.196;7.074;2022-09-03T00:53:15;0.80;;;0.60;;
19575;SDS011;41589;51.196;7.074;2022-09-03T00:58:32;0.50;;;0.50;;
19575;SDS011;41589;51.196;7.074;2022-09-03T01:04:20;1.27;;;0.70;;
19575;SDS011;41589;51.196;7.074;2022-09-03T01:09:49;2.53;;;0.60;;
19575;SDS011;41589;51.196;7.074;2022-09-03T01:20:57;0.50;;;0.50;;
19575;SDS011;41589;51.196;7.074;2022-09-03T01:26:04;0.70;;;0.67;;
19575;SDS011;41589;51.196;7.074;2022-09-03T01:41:56;0.60;;;0.60;;
19575;SDS011;41589;51.196;7.074;2022-09-03T01:47:17;1.03;;;0.50;;
19575;SDS011;41589;51.196;7.074;2022-09-03T01:52:42;0.60;;;0.60;;
19575;SDS011;41589;51.196;7.074;2022-09-03T01:58:01;0.50;;;0.50;;
19575;SDS011;41589;51.196;7.074;2022-09-03T02:03:20;0.60;;;0.60;;
19575;SDS011;41589;51.196;7.074;2022-09-03T02:08:22;0.60;;;0.60;;
19575;SDS011;41589;51.196;7.074;2022-09-03T02:13:25;0.57;;;0.57;;
19575;SDS011;41589;51.196;7.074;2022-09-03T02:18:32;2.20;;;0.60;;
19575;SDS011;41589;51.196;7.074;2022-09-03T02:23:40;0.40;;;0.40;;
19575;SDS011;41589;51.196;7.074;2022-09-03T02:28:41;0.60;;;0.60;;
19575;SDS011;41589;51.196;7.074;2022-09-03T02:33:43;0.60;;;0.60;;
19575;SDS011;41589;51.196;7.074;2022-09-03T02:38:46;0.50;;;0.50;;
19575;SDS011;41589;51.196;7.074;2022-09-03T02:49:07;0.83;;;0.60;;
19575;SDS011;41589;51.196;7.074;2022-09-03T02:54:07;0.50;;;0.50;;
19575;SDS011;41589;51.196;7.074;2022-09-03T02:59:09;0.50;;;0.50;;
19575;SDS011;41589;51.196;7.074;2022-09-03T03:04:10;3.20;;;0.70;;
19575;SDS011;41589;51.196;7.074;2022-09-03T03:09:10;0.50;;;0.50;;
19575;SDS011;41589;51.196;7.074;2022-09-03T03:14:10;1.40;;;0.70;;
19575;SDS011;41589;51.196;7.074;2022-09-03T03:19:11;0.50;;;0.50;;
19575;SDS011;41589;51.196;7.074;2022-09-03T03:24:11;0.50;;;0.50;;
19575;SDS011;41589;51.196;7.074;2022-09-03T03:29:15;0.50;;;0.50;;
19575;SDS011;41589;51.196;7.074;2022-09-03T03:34:19;0.60;;;0.60;;
19575;SDS011;41589;51.196;7.074;2022-09-03T03:39:20;1.43;;;0.60;;
19575;SDS011;41589;51.196;7.074;2022-09-03T03:44:20;0.50;;;0.50;;
19575;SDS011;41589;51.196;7.074;2022-09-03T03:49:21;0.60;;;0.60;;
19575;SDS011;41589;51.196;7.074;2022-09-03T03:54:21;0.63;;;0.60;;
19575;SDS011;41589;51.196;7.074;2022-09-03T03:59:21;0.50;;;0.50;;
19575;SDS011;41589;51.196;7.074;2022-09-03T04:04:22;0.60;;;0.60;;
19575;SDS011;41589;51.196;7.074;2022-09-03T04:09:22;1.07;;;0.60;;
19575;SDS011;41589;51.196;7.074;2022-09-03T04:14:23;0.70;;;0.63;;
19575;SDS011;41589;51.196;7.074;2022-09-03T04:19:24;0.57;;;0.50;;
19575;SDS011;41589;51.196;7.074;2022-09-03T04:24:24;1.17;;;0.60;;
19575;SDS011;41589;51.196;7.074;2022-09-03T04:29:24;0.90;;;0.60;;
19575;SDS011;41589;51.196;7.074;2022-09-03T04:34:26;0.50;;;0.50;;
19575;SDS011;41589;51.196;7.074;2022-09-03T04:39:26;0.50;;;0.50;;
19575;SDS011;41589;51.196;7.074;2022-09-03T04:44:27;0.60;;;0.60;;
19575;SDS011;41589;51.196;7.074;2022-09-03T04:49:27;1.87;;;0.63;;
19575;SDS011;41589;51.196;7.074;2022-09-03T04:54:27;0.50;;;0.50;;
19575;SDS011;41589;51.196;7.074;2022-09-03T04:59:28;0.50;;;0.50;;
19575;SDS011;41589;51.196;7.074;2022-09-03T05:04:28;0.43;;;0.43;;
19575;SDS011;41589;51.196;7.074;2022-09-03T05:09:28;0.50;;;0.50;;
19575;SDS011;41589;51.196;7.074;2022-09-03T05:14:28;0.73;;;0.57;;
19575;SDS011;41589;51.196;7.074;2022-09-03T05:19:29;0.50;;;0.50;;
19575;SDS011;41589;51.196;7.074;2022-09-03T05:24:30;0.60;;;0.60;;
19575;SDS011;41589;51.196;7.074;2022-09-03T05:29:30;0.50;;;0.50;;
19575;SDS011;41589;51.196;7.074;2022-09-03T05:34:31;0.50;;;0.50;;
19575;SDS011;41589;51.196;7.074;2022-09-03T05:39:31;0.67;;;0.67;;
19575;SDS011;41589;51.196;7.074;2022-09-03T05:44:32;0.60;;;0.50;;
19575;SDS011;41589;51.196;7.074;2022-09-03T05:49:32;0.87;;;0.60;;
19575;SDS011;41589;51.196;7.074;2022-09-03T05:54:32;0.50;;;0.50;;
19575;SDS011;41589;51.196;7.074;2022-09-03T05:59:32;2.97;;;0.60;;
19575;SDS011;41589;51.196;7.074;2022-09-03T06:04:33;0.97;;;0.50;;
19575;SDS011;41589;51.196;7.074;2022-09-03T06:09:33;1.03;;;0.43;;
19575;SDS011;41589;51.196;7.074;2022-09-03T06:14:34;0.63;;;0.63;;
19575;SDS011;41589;51.196;7.074;2022-09-03T06:19:35;0.50;;;0.50;;
19575;SDS011;41589;51.196;7.074;2022-09-03T06:24:35;0.90;;;0.70;;
19575;SDS011;41589;51.196;7.074;2022-09-03T06:29:36;1.10;;;0.70;;
19575;SDS011;41589;51.196;7.074;2022-09-03T06:34:38;0.73;;;0.60;;
19575;SDS011;41589;51.196;7.074;2022-09-03T06:39:39;1.10;;;0.60;;
19575;SDS011;41589;51.196;7.074;2022-09-03T06:44:39;0.97;;;0.70;;
19575;SDS011;41589;51.196;7.074;2022-09-03T06:49:40;0.50;;;0.50;;
19575;SDS011;41589;51.196;7.074;2022-09-03T06:54:40;0.63;;;0.63;;
19575;SDS011;41589;51.196;7.074;2022-09-03T06:59:41;0.60;;;0.60;;
19575;SDS011;41589;51.196;7.074;2022-09-03T07:04:42;0.40;;;0.40;;
19575;SDS011;41589;51.196;7.074;2022-09-03T07:09:43;0.57;;;0.57;;
19575;SDS011;41589;51.196;7.074;2022-09-03T07:14:45;0.50;;;0.50;;
19575;SDS011;41589;51.196;7.074;2022-09-03T07:19:46;0.60;;;0.60;;
19575;SDS011;41589;51.196;7.074;2022-09-03T07:24:47;0.50;;;0.50;;
19575;SDS011;41589;51.196;7.074;2022-09-03T07:29:47;1.17;;;0.70;;
19575;SDS011;41589;51.196;7.074;2022-09-03T07:34:48;1.20;;;0.70;;
19575;SDS011;41589;51.196;7.074;2022-09-03T07:39:48;0.67;;;0.67;;
19575;SDS011;41589;51.196;7.074;2022-09-03T07:44:49;0.57;;;0.57;;
19575;SDS011;41589;51.196;7.074;2022-09-03T07:49:49;0.50;;;0.50;;
19575;SDS011;41589;51.196;7.074;2022-09-03T07:54:50;0.60;;;0.60;;
19575;SDS011;41589;51.196;7.074;2022-09-03T07:59:50;1.07;;;0.60;;
19575;SDS011;41589;51.196;7.074;2022-09-03T08:04:54;0.70;;;0.70;;
19575;SDS011;41589;51.196;7.074;2022-09-03T08:09:55;0.50;;;0.50;;
19575;SDS011;41589;51.196;7.074;2022-09-03T08:14:55;0.67;;;0.67;;
19575;SDS011;41589;51.196;7.074;2022-09-03T08:19:57;0.70;;;0.70;;
19575;SDS011;41589;51.196;7.074;2022-09-03T08:24:58;0.63;;;0.63;;
19575;SDS011;41589;51.196;7.074;2022-09-03T08:29:59;0.77;;;0.50;;
19575;SDS011;41589;51.196;7.074;2022-09-03T08:34:59;0.70;;;0.53;;
19575;SDS011;41589;51.196;7.074;2022-09-03T08:40:00;1.57;;;0.67;;
19575;SDS011;41589;51.196;7.074;2022-09-03T08:45:04;0.97;;;0.73;;
19575;SDS011;41589;51.196;7.074;2022-09-03T08:55:41;1.10;;;0.50;;
19575;SDS011;41589;51.196;7.074;2022-09-03T09:11:49;0.83;;;0.70;;
19575;SDS011;41589;51.196;7.074;2022-09-03T09:17:30;0.83;;;0.70;;
19575;SDS011;41589;51.196;7.074;2022-09-03T09:27:47;0.90;;;0.63;;
19575;SDS011;41589;51.196;7.074;2022-09-03T09:32:51;1.63;;;0.80;;
19575;SDS011;41589;51.196;7.074;2022-09-03T09:37:53;0.80;;;0.70;;
19575;SDS011;41589;51.196;7.074;2022-09-03T09:43:05;0.70;;;0.70;;
19575;SDS011;41589;51.196;7.074;2022-09-03T09:48:25;0.60;;;0.60;;
19575;SDS011;41589;51.196;7.074;2022-09-03T09:53:30;0.77;;;0.60;;
19575;SDS011;41589;51.196;7.074;2022-09-03T09:58:31;0.73;;;0.60;;
19575;SDS011;41589;51.196;7.074;2022-09-03T10:03:33;0.60;;;0.60;;
19575;SDS011;41589;51.196;7.074;2022-09-03T10:08:34;0.53;;;0.53;;
19575;SDS011;41589;51.196;7.074;2022-09-03T10:13:38;1.63;;;0.70;;
19575;SDS011;41589;51.196;7.074;2022-09-03T10:18:56;0.87;;;0.60;;
19575;SDS011;41589;51.196;7.074;2022-09-03T10:29:22;0.73;;;0.73;;
19575;SDS011;41589;51.196;7.074;2022-09-03T10:50:02;0.70;;;0.70;;
19575;SDS011;41589;51.196;7.074;2022-09-03T10:55:11;0.50;;;0.50;;
19575;SDS011;41589;51.196;7.074;2022-09-03T11:00:17;0.67;;;0.67;;
19575;SDS011;41589;51.196;7.074;2022-09-03T11:05:22;0.70;;;0.70;;
19575;SDS011;41589;51.196;7.074;2022-09-03T11:15:27;0.70;;;0.70;;
19575;SDS011;41589;51.196;7.074;2022-09-03T11:20:33;0.60;;;0.60;;
19575;SDS011;41589;51.196;7.074;2022-09-03T11:25:35;2.10;;;0.80;;
19575;SDS011;41589;51.196;7.074;2022-09-03T11:30:54;0.60;;;0.60;;
19575;SDS011;41589;51.196;7.074;2022-09-03T11:36:12;0.60;;;0.60;;
19575;SDS011;41589;51.196;7.074;2022-09-03T11:41:26;0.70;;;0.67;;
19575;SDS011;41589;51.196;7.074;2022-09-03T11:46:30;0.70;;;0.70;;
19575;SDS011;41589;51.196;7.074;2022-09-03T11:51:33;0.60;;;0.60;;
19575;SDS011;41589;51.196;7.074;2022-09-03T11:56:34;0.70;;;0.70;;
19575;SDS011;41589;51.196;7.074;2022-09-03T12:01:41;0.80;;;0.80;;
19575;SDS011;41589;51.196;7.074;2022-09-03T12:17:15;0.80;;;0.80;;
19575;SDS011;41589;51.196;7.074;2022-09-03T12:22:36;0.70;;;0.70;;
19575;SDS011;41589;51.196;7.074;2022-09-03T12:27:45;0.50;;;0.50;;
19575;SDS011;41589;51.196;7.074;2022-09-03T12:32:45;1.10;;;1.00;;
19575;SDS011;41589;51.196;7.074;2022-09-03T12:37:46;0.70;;;0.70;;
19575;SDS011;41589;51.196;7.074;2022-09-03T12:42:49;0.83;;;0.80;;
19575;SDS011;41589;51.196;7.074;2022-09-03T12:47:50;1.60;;;0.70;;
19575;SDS011;41589;51.196;7.074;2022-09-03T12:52:51;0.90;;;0.90;;
19575;SDS011;41589;51.196;7.074;2022-09-03T12:58:00;0.80;;;0.80;;
19575;SDS011;41589;51.196;7.074;2022-09-03T13:03:18;0.50;;;0.50;;
19575;SDS011;41589;51.196;7.074;2022-09-03T13:08:27;0.63;;;0.63;;
19575;SDS011;41589;51.196;7.074;2022-09-03T13:13:32;0.90;;;0.90;;
19575;SDS011;41589;51.196;7.074;2022-09-03T13:18:41;0.80;;;0.80;;
19575;SDS011;41589;51.196;7.074;2022-09-03T13:29:08;0.80;;;0.80;;
19575;SDS011;41589;51.196;7.074;2022-09-03T13:34:29;0.73;;;0.70;;
19575;SDS011;41589;51.196;7.074;2022-09-03T13:50:07;1.03;;;0.80;;
19575;SDS011;41589;51.196;7.074;2022-09-03T14:00:42;0.70;;;0.70;;
19575;SDS011;41589;51.196;7.074;2022-09-03T14:05:53;0.87;;;0.87;;
19575;SDS011;41589;51.196;7.074;2022-09-03T14:22:05;1.07;;;0.80;;
19575;SDS011;41589;51.196;7.074;2022-09-03T14:27:20;0.80;;;0.80;;
19575;SDS011;41589;51.196;7.074;2022-09-03T14:32:43;0.80;;;0.80;;
19575;SDS011;41589;51.196;7.074;2022-09-03T14:38:08;0.70;;;0.70;;
19575;SDS011;41589;51.196;7.074;2022-09-03T14:54:35;1.63;;;0.80;;
19575;SDS011;41589;51.196;7.074;2022-09-03T14:59:51;0.70;;;0.70;;
19575;SDS011;41589;51.196;7.074;2022-09-03T15:10:45;0.63;;;0.63;;
19575;SDS011;41589;51.196;7.074;2022-09-03T15:37:07;0.70;;;0.70;;
19575;SDS011;41589;51.196;7.074;2022-09-03T15:42:25;0.80;;;0.80;;
19575;SDS011;41589;51.196;7.074;2022-09-03T16:08:49;0.83;;;0.83;;
19575;SDS011;41589;51.196;7.074;2022-09-03T16:24:46;0.77;;;0.77;;
19575;SDS011;41589;51.196;7.074;2022-09-03T16:29:57;1.27;;;0.70;;
19575;SDS011;41589;51.196;7.074;2022-09-03T16:56:18;0.87;;;0.80;;
19575;SDS011;41589;51.196;7.074;2022-09-03T17:02:09;0.90;;;0.90;;
19575;SDS011;41589;51.196;7.074;2022-09-03T17:13:10;0.80;;;0.80;;
19575;SDS011;41589;51.196;7.074;2022-09-03T17:18:40;1.00;;;1.00;;
19575;SDS011;41589;51.196;7.074;2022-09-03T17:29:14;1.03;;;0.90;;
19575;SDS011;41589;51.196;7.074;2022-09-03T17:34:58;1.10;;;1.00;;
19575;SDS011;41589;51.196;7.074;2022-09-03T17:50:52;1.37;;;1.00;;
19575;SDS011;41589;51.196;7.074;2022-09-03T17:56:18;1.57;;;1.00;;
19575;SDS011;41589;51.196;7.074;2022-09-03T18:01:25;1.90;;;1.33;;
19575;SDS011;41589;51.196;7.074;2022-09-03T18:11:47;1.40;;;1.30;;
19575;SDS011;41589;51.196;7.074;2022-09-03T18:17:09;1.20;;;1.20;;
19575;SDS011;41589;51.196;7.074;2022-09-03T18:22:17;1.30;;;1.20;;
19575;SDS011;41589;51.196;7.074;2022-09-03T18:27:44;1.07;;;1.07;;
19575;SDS011;41589;51.196;7.074;2022-09-03T18:33:07;1.00;;;1.00;;
19575;SDS011;41589;51.196;7.074;2022-09-03T18:38:27;1.67;;;1.30;;
19575;SDS011;41589;51.196;7.074;2022-09-03T18:55:17;1.10;;;1.00;;
19575;SDS011;41589;51.196;7.074;2022-09-03T19:00:47;1.00;;;1.00;;
19575;SDS011;41589;51.196;7.074;2022-09-03T19:12:10;0.80;;;0.80;;
19575;SDS011;41589;51.196;7.074;2022-09-03T19:17:59;0.87;;;0.87;;
19575;SDS011;41589;51.196;7.074;2022-09-03T19:23:24;0.90;;;0.90;;
19575;SDS011;41589;51.196;7.074;2022-09-03T19:28:44;0.93;;;0.93;;
19575;SDS011;41589;51.196;7.074;2022-09-03T19:39:53;0.90;;;0.90;;
19575;SDS011;41589;51.196;7.074;2022-09-03T19:51:07;1.10;;;1.00;;
19575;SDS011;41589;51.196;7.074;2022-09-03T19:56:31;0.80;;;0.80;;
19575;SDS011;41589;51.196;7.074;2022-09-03T20:01:51;0.80;;;0.80;;
19575;SDS011;41589;51.196;7.074;2022-09-03T20:07:10;0.80;;;0.80;;
19575;SDS011;41589;51.196;7.074;2022-09-03T20:12:34;0.73;;;0.73;;
19575;SDS011;41589;51.196;7.074;2022-09-03T20:17:42;0.90;;;0.90;;
19575;SDS011;41589;51.196;7.074;2022-09-03T20:22:55;0.73;;;0.73;;
19575;SDS011;41589;51.196;7.074;2022-09-03T20:54:26;0.90;;;0.90;;
19575;SDS011;41589;51.196;7.074;2022-09-03T21:15:31;0.80;;;0.80;;
19575;SDS011;41589;51.196;7.074;2022-09-03T21:20:43;0.90;;;0.90;;
19575;SDS011;41589;51.196;7.074;2022-09-03T21:25:58;1.03;;;1.03;;
19575;SDS011;41589;51.196;7.074;2022-09-03T21:36:40;0.97;;;0.97;;
19575;SDS011;41589;51.196;7.074;2022-09-03T21:47:20;1.00;;;1.00;;
19575;SDS011;41589;51.196;7.074;2022-09-03T21:52:30;1.47;;;0.97;;
19575;SDS011;41589;51.196;7.074;2022-09-03T21:57:43;1.40;;;0.90;;
19575;SDS011;41589;51.196;7.074;2022-09-03T22:03:01;1.00;;;1.00;;
19575;SDS011;41589;51.196;7.074;2022-09-03T22:08:20;0.80;;;0.80;;
19575;SDS011;41589;51.196;7.074;2022-09-03T22:13:47;0.90;;;0.90;;
19575;SDS011;41589;51.196;7.074;2022-09-03T22:18:59;1.00;;;1.00;;
19575;SDS011;41589;51.196;7.074;2022-09-03T22:29:18;0.90;;;0.90;;
19575;SDS011;41589;51.196;7.074;2022-09-03T22:34:47;1.10;;;1.00;;
19575;SDS011;41589;51.196;7.074;2022-09-03T22:39:50;0.80;;;0.80;;
19575;SDS011;41589;51.196;7.074;2022-09-03T22:55:23;0.90;;;0.90;;
19575;SDS011;41589;51.196;7.074;2022-09-03T23:00:25;0.83;;;0.83;;
19575;SDS011;41589;51.196;7.074;2022-09-03T23:05:37;0.73;;;0.73;;
19575;SDS011;41589;51.196;7.074;2022-09-03T23:10:57;1.00;;;1.00;;
19575;SDS011;41589;51.196;7.074;2022-09-03T23:16:26;0.90;;;0.90;;
19575;SDS011;41589;51.196;7.074;2022-09-03T23:22:04;1.13;;;1.00;;
19575;SDS011;41589;51.196;7.074;2022-09-03T23:27:09;1.00;;;1.00;;
19575;SDS011;41589;51.196;7.074;2022-09-03T23:32:16;1.33;;;1.00;;
19575;SDS011;41589;51.196;7.074;2022-09-03T23:47:53;0.93;;;0.93;;
19575;SDS011;41589;51.196;7.074;2022-09-03T23:53:15;1.00;;;1.00;;
19575;SDS011;41589;51.196;7.074;2022-09-03T23:58:32;0.70;;;0.70;;
